sensor_id;sensor_type;location;lat;lon;timestamp;P1;durP1;ratioP1;P2;durP2;ratioP2
15841;SDS011;8021;48.022;11.812;2023-05-29T00:02:02;0.40;;;0.40;;
15841;SDS011;8021;48.022;11.812;2023-05-29T00:04:29;0.30;;;0.30;;
15841;SDS011;8021;48.022;11.812;2023-05-29T00:06:58;0.30;;;0.30;;
15841;SDS011;8021;48.022;11.812;2023-05-29T00:09:26;0.30;;;0.28;;
15841;SDS011;8021;48.022;11.812;2023-05-29T00:11:54;0.20;;;0.20;;
15841;SDS011;8021;48.022;11.812;2023-05-29T00:14:21;0.38;;;0.38;;
15841;SDS011;8021;48.022;11.812;2023-05-29T00:16:50;0.30;;;0.30;;
15841;SDS011;8021;48.022;11.812;2023-05-29T00:19:18;0.40;;;0.40;;
15841;SDS011;8021;48.022;11.812;2023-05-29T00:21:46;0.40;;;0.40;;
15841;SDS011;8021;48.022;11.812;2023-05-29T00:24:16;0.30;;;0.30;;
15841;SDS011;8021;48.022;11.812;2023-05-29T00:26:43;0.30;;;0.30;;
15841;SDS011;8021;48.022;11.812;2023-05-29T00:29:12;0.30;;;0.30;;
15841;SDS011;8021;48.022;11.812;2023-05-29T00:31:39;0.30;;;0.30;;
15841;SDS011;8021;48.022;11.812;2023-05-29T00:34:07;0.38;;;0.38;;
15841;SDS011;8021;48.022;11.812;2023-05-29T00:36:34;0.30;;;0.30;;
15841;SDS011;8021;48.022;11.812;2023-05-29T00:39:03;0.40;;;0.40;;
15841;SDS011;8021;48.022;11.812;2023-05-29T00:41:32;0.40;;;0.40;;
15841;SDS011;8021;48.022;11.812;2023-05-29T00:44:00;0.30;;;0.30;;
15841;SDS011;8021;48.022;11.812;2023-05-29T00:46:28;0.30;;;0.30;;
15841;SDS011;8021;48.022;11.812;2023-05-29T00:48:58;0.30;;;0.30;;
15841;SDS011;8021;48.022;11.812;2023-05-29T00:51:30;0.30;;;0.30;;
15841;SDS011;8021;48.022;11.812;2023-05-29T00:53:59;0.30;;;0.30;;
15841;SDS011;8021;48.022;11.812;2023-05-29T00:56:27;0.30;;;0.30;;
15841;SDS011;8021;48.022;11.812;2023-05-29T00:58:55;0.30;;;0.30;;
15841;SDS011;8021;48.022;11.812;2023-05-29T01:01:23;0.30;;;0.28;;
15841;SDS011;8021;48.022;11.812;2023-05-29T01:03:52;0.30;;;0.28;;
15841;SDS011;8021;48.022;11.812;2023-05-29T01:06:21;0.28;;;0.28;;
15841;SDS011;8021;48.022;11.812;2023-05-29T01:08:49;0.30;;;0.30;;
15841;SDS011;8021;48.022;11.812;2023-05-29T01:11:19;0.30;;;0.30;;
15841;SDS011;8021;48.022;11.812;2023-05-29T01:13:49;0.30;;;0.30;;
15841;SDS011;8021;48.022;11.812;2023-05-29T01:16:19;0.40;;;0.40;;
15841;SDS011;8021;48.022;11.812;2023-05-29T01:18:50;0.30;;;0.30;;
15841;SDS011;8021;48.022;11.812;2023-05-29T01:21:20;0.30;;;0.28;;
15841;SDS011;8021;48.022;11.812;2023-05-29T01:23:52;0.30;;;0.20;;
15841;SDS011;8021;48.022;11.812;2023-05-29T01:26:21;0.30;;;0.30;;
15841;SDS011;8021;48.022;11.812;2023-05-29T01:28:53;0.30;;;0.30;;
15841;SDS011;8021;48.022;11.812;2023-05-29T01:31:25;0.30;;;0.30;;
15841;SDS011;8021;48.022;11.812;2023-05-29T01:33:54;0.30;;;0.30;;
15841;SDS011;8021;48.022;11.812;2023-05-29T01:36:21;0.30;;;0.30;;
15841;SDS011;8021;48.022;11.812;2023-05-29T01:38:49;0.30;;;0.30;;
15841;SDS011;8021;48.022;11.812;2023-05-29T01:41:17;0.35;;;0.35;;
15841;SDS011;8021;48.022;11.812;2023-05-29T01:43:45;0.40;;;0.40;;
15841;SDS011;8021;48.022;11.812;2023-05-29T01:46:14;0.30;;;0.30;;
15841;SDS011;8021;48.022;11.812;2023-05-29T01:48:43;0.30;;;0.30;;
15841;SDS011;8021;48.022;11.812;2023-05-29T01:51:11;0.30;;;0.30;;
15841;SDS011;8021;48.022;11.812;2023-05-29T01:53:39;0.30;;;0.22;;
15841;SDS011;8021;48.022;11.812;2023-05-29T01:56:07;0.30;;;0.30;;
15841;SDS011;8021;48.022;11.812;2023-05-29T01:58:35;0.30;;;0.30;;
15841;SDS011;8021;48.022;11.812;2023-05-29T02:01:03;0.30;;;0.25;;
15841;SDS011;8021;48.022;11.812;2023-05-29T02:03:33;0.30;;;0.30;;
15841;SDS011;8021;48.022;11.812;2023-05-29T02:06:01;0.20;;;0.20;;
15841;SDS011;8021;48.022;11.812;2023-05-29T02:08:29;0.30;;;0.20;;
15841;SDS011;8021;48.022;11.812;2023-05-29T02:10:56;0.30;;;0.30;;
15841;SDS011;8021;48.022;11.812;2023-05-29T02:13:24;0.30;;;0.22;;
15841;SDS011;8021;48.022;11.812;2023-05-29T02:15:52;0.30;;;0.30;;
15841;SDS011;8021;48.022;11.812;2023-05-29T02:18:19;0.30;;;0.28;;
15841;SDS011;8021;48.022;11.812;2023-05-29T02:20:48;0.20;;;0.20;;
15841;SDS011;8021;48.022;11.812;2023-05-29T02:23:22;0.30;;;0.30;;
15841;SDS011;8021;48.022;11.812;2023-05-29T02:25:50;0.30;;;0.30;;
15841;SDS011;8021;48.022;11.812;2023-05-29T02:28:17;0.30;;;0.30;;
15841;SDS011;8021;48.022;11.812;2023-05-29T02:30:45;0.30;;;0.30;;
15841;SDS011;8021;48.022;11.812;2023-05-29T02:33:12;0.30;;;0.30;;
15841;SDS011;8021;48.022;11.812;2023-05-29T02:35:40;0.30;;;0.30;;
15841;SDS011;8021;48.022;11.812;2023-05-29T02:38:09;0.43;;;0.43;;
15841;SDS011;8021;48.022;11.812;2023-05-29T02:40:39;0.38;;;0.38;;
15841;SDS011;8021;48.022;11.812;2023-05-29T02:43:08;0.30;;;0.30;;
15841;SDS011;8021;48.022;11.812;2023-05-29T02:45:35;0.35;;;0.35;;
15841;SDS011;8021;48.022;11.812;2023-05-29T02:48:03;0.30;;;0.30;;
15841;SDS011;8021;48.022;11.812;2023-05-29T02:50:31;0.30;;;0.20;;
15841;SDS011;8021;48.022;11.812;2023-05-29T02:52:58;0.30;;;0.30;;
15841;SDS011;8021;48.022;11.812;2023-05-29T02:55:27;0.30;;;0.30;;
15841;SDS011;8021;48.022;11.812;2023-05-29T02:57:55;0.35;;;0.35;;
15841;SDS011;8021;48.022;11.812;2023-05-29T03:00:22;0.30;;;0.30;;
15841;SDS011;8021;48.022;11.812;2023-05-29T03:02:51;0.30;;;0.30;;
15841;SDS011;8021;48.022;11.812;2023-05-29T03:05:19;0.40;;;0.40;;
15841;SDS011;8021;48.022;11.812;2023-05-29T03:07:46;0.40;;;0.40;;
15841;SDS011;8021;48.022;11.812;2023-05-29T03:10:14;0.30;;;0.30;;
15841;SDS011;8021;48.022;11.812;2023-05-29T03:12:45;0.30;;;0.30;;
15841;SDS011;8021;48.022;11.812;2023-05-29T03:15:12;0.40;;;0.40;;
15841;SDS011;8021;48.022;11.812;2023-05-29T03:17:40;0.30;;;0.30;;
15841;SDS011;8021;48.022;11.812;2023-05-29T03:20:12;0.40;;;0.40;;
15841;SDS011;8021;48.022;11.812;2023-05-29T03:22:41;0.40;;;0.40;;
15841;SDS011;8021;48.022;11.812;2023-05-29T03:25:09;0.30;;;0.30;;
15841;SDS011;8021;48.022;11.812;2023-05-29T03:27:37;0.30;;;0.20;;
15841;SDS011;8021;48.022;11.812;2023-05-29T03:30:11;0.30;;;0.30;;
15841;SDS011;8021;48.022;11.812;2023-05-29T03:32:39;0.30;;;0.25;;
15841;SDS011;8021;48.022;11.812;2023-05-29T03:35:07;0.30;;;0.30;;
15841;SDS011;8021;48.022;11.812;2023-05-29T03:37:38;0.40;;;0.40;;
15841;SDS011;8021;48.022;11.812;2023-05-29T03:40:06;0.30;;;0.30;;
15841;SDS011;8021;48.022;11.812;2023-05-29T03:42:34;0.30;;;0.30;;
15841;SDS011;8021;48.022;11.812;2023-05-29T03:45:02;0.32;;;0.32;;
15841;SDS011;8021;48.022;11.812;2023-05-29T03:47:33;0.40;;;0.40;;
15841;SDS011;8021;48.022;11.812;2023-05-29T03:50:01;0.30;;;0.30;;
15841;SDS011;8021;48.022;11.812;2023-05-29T03:52:33;0.40;;;0.40;;
15841;SDS011;8021;48.022;11.812;2023-05-29T03:55:01;0.30;;;0.30;;
15841;SDS011;8021;48.022;11.812;2023-05-29T03:57:29;0.40;;;0.40;;
15841;SDS011;8021;48.022;11.812;2023-05-29T03:59:57;0.30;;;0.30;;
15841;SDS011;8021;48.022;11.812;2023-05-29T04:02:24;0.30;;;0.30;;
15841;SDS011;8021;48.022;11.812;2023-05-29T04:04:53;0.20;;;0.20;;
15841;SDS011;8021;48.022;11.812;2023-05-29T04:07:21;0.30;;;0.30;;
15841;SDS011;8021;48.022;11.812;2023-05-29T04:09:49;0.22;;;0.20;;
15841;SDS011;8021;48.022;11.812;2023-05-29T04:12:16;0.22;;;0.20;;
15841;SDS011;8021;48.022;11.812;2023-05-29T04:14:44;0.20;;;0.20;;
15841;SDS011;8021;48.022;11.812;2023-05-29T04:17:12;0.30;;;0.20;;
15841;SDS011;8021;48.022;11.812;2023-05-29T04:19:42;0.20;;;0.10;;
15841;SDS011;8021;48.022;11.812;2023-05-29T04:22:11;0.20;;;0.20;;
15841;SDS011;8021;48.022;11.812;2023-05-29T04:24:39;0.10;;;0.10;;
15841;SDS011;8021;48.022;11.812;2023-05-29T04:27:08;0.20;;;0.15;;
15841;SDS011;8021;48.022;11.812;2023-05-29T04:29:39;0.20;;;0.20;;
15841;SDS011;8021;48.022;11.812;2023-05-29T04:32:08;0.10;;;0.10;;
15841;SDS011;8021;48.022;11.812;2023-05-29T04:34:38;0.20;;;0.20;;
15841;SDS011;8021;48.022;11.812;2023-05-29T04:37:06;0.20;;;0.20;;
15841;SDS011;8021;48.022;11.812;2023-05-29T04:39:35;0.10;;;0.10;;
15841;SDS011;8021;48.022;11.812;2023-05-29T04:42:04;0.10;;;0.10;;
15841;SDS011;8021;48.022;11.812;2023-05-29T04:44:34;0.10;;;0.10;;
15841;SDS011;8021;48.022;11.812;2023-05-29T04:47:01;0.10;;;0.10;;
15841;SDS011;8021;48.022;11.812;2023-05-29T04:49:30;0.10;;;0.10;;
15841;SDS011;8021;48.022;11.812;2023-05-29T04:51:58;0.10;;;0.10;;
15841;SDS011;8021;48.022;11.812;2023-05-29T04:54:27;0.10;;;0.10;;
15841;SDS011;8021;48.022;11.812;2023-05-29T04:56:56;0.10;;;0.10;;
15841;SDS011;8021;48.022;11.812;2023-05-29T04:59:28;0.10;;;0.10;;
15841;SDS011;8021;48.022;11.812;2023-05-29T05:01:56;0.10;;;0.10;;
15841;SDS011;8021;48.022;11.812;2023-05-29T05:04:23;0.10;;;0.10;;
15841;SDS011;8021;48.022;11.812;2023-05-29T05:06:51;0.10;;;0.10;;
15841;SDS011;8021;48.022;11.812;2023-05-29T05:09:19;0.10;;;0.10;;
15841;SDS011;8021;48.022;11.812;2023-05-29T05:11:46;0.05;;;0.05;;
15841;SDS011;8021;48.022;11.812;2023-05-29T05:14:17;0.08;;;0.08;;
15841;SDS011;8021;48.022;11.812;2023-05-29T05:16:46;0.10;;;0.10;;
15841;SDS011;8021;48.022;11.812;2023-05-29T05:19:14;0.08;;;0.08;;
15841;SDS011;8021;48.022;11.812;2023-05-29T05:21:42;0.05;;;0.05;;
15841;SDS011;8021;48.022;11.812;2023-05-29T05:24:11;0.10;;;0.10;;
15841;SDS011;8021;48.022;11.812;2023-05-29T05:26:40;0.03;;;0.03;;
15841;SDS011;8021;48.022;11.812;2023-05-29T05:29:08;0.00;;;0.00;;
15841;SDS011;8021;48.022;11.812;2023-05-29T05:31:39;0.00;;;0.00;;
15841;SDS011;8021;48.022;11.812;2023-05-29T05:34:08;0.00;;;0.00;;
15841;SDS011;8021;48.022;11.812;2023-05-29T05:36:35;0.00;;;0.00;;
15841;SDS011;8021;48.022;11.812;2023-05-29T05:39:08;0.00;;;0.00;;
15841;SDS011;8021;48.022;11.812;2023-05-29T05:41:36;0.00;;;0.00;;
15841;SDS011;8021;48.022;11.812;2023-05-29T05:44:05;0.00;;;0.00;;
15841;SDS011;8021;48.022;11.812;2023-05-29T05:46:50;0.00;;;0.00;;
15841;SDS011;8021;48.022;11.812;2023-05-29T05:49:19;0.00;;;0.00;;
15841;SDS011;8021;48.022;11.812;2023-05-29T05:51:46;0.03;;;0.00;;
15841;SDS011;8021;48.022;11.812;2023-05-29T05:54:16;0.00;;;0.00;;
15841;SDS011;8021;48.022;11.812;2023-05-29T05:56:43;0.00;;;0.00;;
15841;SDS011;8021;48.022;11.812;2023-05-29T05:59:14;0.00;;;0.00;;
15841;SDS011;8021;48.022;11.812;2023-05-29T06:01:41;0.00;;;0.00;;
15841;SDS011;8021;48.022;11.812;2023-05-29T06:04:10;0.00;;;0.00;;
15841;SDS011;8021;48.022;11.812;2023-05-29T06:06:38;0.00;;;0.00;;
15841;SDS011;8021;48.022;11.812;2023-05-29T06:09:07;0.00;;;0.00;;
15841;SDS011;8021;48.022;11.812;2023-05-29T06:11:36;0.00;;;0.00;;
15841;SDS011;8021;48.022;11.812;2023-05-29T06:14:04;0.08;;;0.00;;
15841;SDS011;8021;48.022;11.812;2023-05-29T06:16:31;0.00;;;0.00;;
15841;SDS011;8021;48.022;11.812;2023-05-29T06:18:59;0.00;;;0.00;;
15841;SDS011;8021;48.022;11.812;2023-05-29T06:21:30;0.00;;;0.00;;
15841;SDS011;8021;48.022;11.812;2023-05-29T06:23:58;0.00;;;0.00;;
15841;SDS011;8021;48.022;11.812;2023-05-29T06:26:26;0.00;;;0.00;;
15841;SDS011;8021;48.022;11.812;2023-05-29T06:28:54;0.00;;;0.00;;
15841;SDS011;8021;48.022;11.812;2023-05-29T06:31:22;0.00;;;0.00;;
15841;SDS011;8021;48.022;11.812;2023-05-29T06:33:50;0.00;;;0.00;;
15841;SDS011;8021;48.022;11.812;2023-05-29T06:36:17;0.00;;;0.00;;
15841;SDS011;8021;48.022;11.812;2023-05-29T06:38:47;0.00;;;0.00;;
15841;SDS011;8021;48.022;11.812;2023-05-29T06:41:15;0.00;;;0.00;;
15841;SDS011;8021;48.022;11.812;2023-05-29T06:43:43;0.00;;;0.00;;
15841;SDS011;8021;48.022;11.812;2023-05-29T06:46:12;0.00;;;0.00;;
15841;SDS011;8021;48.022;11.812;2023-05-29T06:48:40;0.00;;;0.00;;
15841;SDS011;8021;48.022;11.812;2023-05-29T06:51:08;0.00;;;0.00;;
15841;SDS011;8021;48.022;11.812;2023-05-29T06:53:54;0.00;;;0.00;;
15841;SDS011;8021;48.022;11.812;2023-05-29T06:56:23;0.00;;;0.00;;
15841;SDS011;8021;48.022;11.812;2023-05-29T06:58:52;0.00;;;0.00;;
15841;SDS011;8021;48.022;11.812;2023-05-29T07:01:21;0.00;;;0.00;;
15841;SDS011;8021;48.022;11.812;2023-05-29T07:03:55;0.00;;;0.00;;
15841;SDS011;8021;48.022;11.812;2023-05-29T07:06:22;0.00;;;0.00;;
15841;SDS011;8021;48.022;11.812;2023-05-29T07:08:50;0.00;;;0.00;;
15841;SDS011;8021;48.022;11.812;2023-05-29T07:11:19;0.00;;;0.00;;
15841;SDS011;8021;48.022;11.812;2023-05-29T07:13:46;0.00;;;0.00;;
15841;SDS011;8021;48.022;11.812;2023-05-29T07:16:14;0.00;;;0.00;;
15841;SDS011;8021;48.022;11.812;2023-05-29T07:18:56;0.00;;;0.00;;
15841;SDS011;8021;48.022;11.812;2023-05-29T07:21:25;0.00;;;0.00;;
15841;SDS011;8021;48.022;11.812;2023-05-29T07:23:53;0.00;;;0.00;;
15841;SDS011;8021;48.022;11.812;2023-05-29T07:26:22;0.00;;;0.00;;
15841;SDS011;8021;48.022;11.812;2023-05-29T07:28:49;0.00;;;0.00;;
15841;SDS011;8021;48.022;11.812;2023-05-29T07:31:17;0.00;;;0.00;;
15841;SDS011;8021;48.022;11.812;2023-05-29T07:33:47;0.00;;;0.00;;
15841;SDS011;8021;48.022;11.812;2023-05-29T07:36:15;0.00;;;0.00;;
15841;SDS011;8021;48.022;11.812;2023-05-29T07:38:44;0.00;;;0.00;;
15841;SDS011;8021;48.022;11.812;2023-05-29T07:41:15;0.00;;;0.00;;
15841;SDS011;8021;48.022;11.812;2023-05-29T07:43:50;0.00;;;0.00;;
15841;SDS011;8021;48.022;11.812;2023-05-29T07:46:19;0.00;;;0.00;;
15841;SDS011;8021;48.022;11.812;2023-05-29T07:48:50;0.00;;;0.00;;
15841;SDS011;8021;48.022;11.812;2023-05-29T07:51:18;0.00;;;0.00;;
15841;SDS011;8021;48.022;11.812;2023-05-29T07:53:48;0.00;;;0.00;;
15841;SDS011;8021;48.022;11.812;2023-05-29T07:56:16;0.00;;;0.00;;
15841;SDS011;8021;48.022;11.812;2023-05-29T07:58:44;0.00;;;0.00;;
15841;SDS011;8021;48.022;11.812;2023-05-29T08:01:13;0.00;;;0.00;;
15841;SDS011;8021;48.022;11.812;2023-05-29T08:03:41;0.00;;;0.00;;
15841;SDS011;8021;48.022;11.812;2023-05-29T08:06:23;0.00;;;0.00;;
15841;SDS011;8021;48.022;11.812;2023-05-29T08:08:50;0.00;;;0.00;;
15841;SDS011;8021;48.022;11.812;2023-05-29T08:11:21;0.00;;;0.00;;
15841;SDS011;8021;48.022;11.812;2023-05-29T08:13:48;0.00;;;0.00;;
15841;SDS011;8021;48.022;11.812;2023-05-29T08:16:18;0.00;;;0.00;;
15841;SDS011;8021;48.022;11.812;2023-05-29T08:18:46;0.00;;;0.00;;
15841;SDS011;8021;48.022;11.812;2023-05-29T08:21:13;0.00;;;0.00;;
15841;SDS011;8021;48.022;11.812;2023-05-29T08:23:41;0.00;;;0.00;;
15841;SDS011;8021;48.022;11.812;2023-05-29T08:26:08;0.00;;;0.00;;
15841;SDS011;8021;48.022;11.812;2023-05-29T08:28:36;0.00;;;0.00;;
15841;SDS011;8021;48.022;11.812;2023-05-29T08:31:06;0.00;;;0.00;;
15841;SDS011;8021;48.022;11.812;2023-05-29T08:33:35;0.00;;;0.00;;
15841;SDS011;8021;48.022;11.812;2023-05-29T08:36:04;0.00;;;0.00;;
15841;SDS011;8021;48.022;11.812;2023-05-29T08:38:31;0.00;;;0.00;;
15841;SDS011;8021;48.022;11.812;2023-05-29T08:40:59;0.00;;;0.00;;
15841;SDS011;8021;48.022;11.812;2023-05-29T08:43:29;0.00;;;0.00;;
15841;SDS011;8021;48.022;11.812;2023-05-29T08:45:59;0.00;;;0.00;;
15841;SDS011;8021;48.022;11.812;2023-05-29T08:48:29;0.00;;;0.00;;
15841;SDS011;8021;48.022;11.812;2023-05-29T08:50:58;0.00;;;0.00;;
15841;SDS011;8021;48.022;11.812;2023-05-29T08:53:26;0.00;;;0.00;;
15841;SDS011;8021;48.022;11.812;2023-05-29T08:55:53;0.00;;;0.00;;
15841;SDS011;8021;48.022;11.812;2023-05-29T08:58:22;0.00;;;0.00;;
15841;SDS011;8021;48.022;11.812;2023-05-29T09:00:50;0.00;;;0.00;;
15841;SDS011;8021;48.022;11.812;2023-05-29T09:03:18;0.00;;;0.00;;
15841;SDS011;8021;48.022;11.812;2023-05-29T09:05:47;0.00;;;0.00;;
15841;SDS011;8021;48.022;11.812;2023-05-29T09:08:17;0.00;;;0.00;;
15841;SDS011;8021;48.022;11.812;2023-05-29T09:10:44;0.00;;;0.00;;
15841;SDS011;8021;48.022;11.812;2023-05-29T09:13:12;0.00;;;0.00;;
15841;SDS011;8021;48.022;11.812;2023-05-29T09:15:41;0.00;;;0.00;;
15841;SDS011;8021;48.022;11.812;2023-05-29T09:18:10;0.10;;;0.10;;
15841;SDS011;8021;48.022;11.812;2023-05-29T09:20:38;0.03;;;0.00;;
15841;SDS011;8021;48.022;11.812;2023-05-29T09:23:06;0.00;;;0.00;;
15841;SDS011;8021;48.022;11.812;2023-05-29T09:25:35;0.10;;;0.10;;
15841;SDS011;8021;48.022;11.812;2023-05-29T09:28:04;0.10;;;0.10;;
15841;SDS011;8021;48.022;11.812;2023-05-29T09:30:33;0.10;;;0.10;;
15841;SDS011;8021;48.022;11.812;2023-05-29T09:33:02;0.10;;;0.10;;
15841;SDS011;8021;48.022;11.812;2023-05-29T09:35:33;0.13;;;0.13;;
15841;SDS011;8021;48.022;11.812;2023-05-29T09:38:01;0.20;;;0.20;;
15841;SDS011;8021;48.022;11.812;2023-05-29T09:40:31;0.10;;;0.10;;
15841;SDS011;8021;48.022;11.812;2023-05-29T09:43:04;0.10;;;0.10;;
15841;SDS011;8021;48.022;11.812;2023-05-29T09:45:37;0.10;;;0.10;;
15841;SDS011;8021;48.022;11.812;2023-05-29T09:48:06;0.10;;;0.10;;
15841;SDS011;8021;48.022;11.812;2023-05-29T09:50:34;0.20;;;0.20;;
15841;SDS011;8021;48.022;11.812;2023-05-29T09:53:01;0.10;;;0.10;;
15841;SDS011;8021;48.022;11.812;2023-05-29T09:55:31;0.10;;;0.10;;
15841;SDS011;8021;48.022;11.812;2023-05-29T09:58:00;0.20;;;0.20;;
15841;SDS011;8021;48.022;11.812;2023-05-29T10:00:29;0.10;;;0.10;;
15841;SDS011;8021;48.022;11.812;2023-05-29T10:02:58;0.10;;;0.10;;
15841;SDS011;8021;48.022;11.812;2023-05-29T10:05:26;0.10;;;0.10;;
15841;SDS011;8021;48.022;11.812;2023-05-29T10:07:55;0.10;;;0.10;;
15841;SDS011;8021;48.022;11.812;2023-05-29T10:10:23;0.10;;;0.10;;
15841;SDS011;8021;48.022;11.812;2023-05-29T10:12:53;0.10;;;0.10;;
15841;SDS011;8021;48.022;11.812;2023-05-29T10:15:21;0.10;;;0.10;;
15841;SDS011;8021;48.022;11.812;2023-05-29T10:17:53;0.10;;;0.10;;
15841;SDS011;8021;48.022;11.812;2023-05-29T10:20:24;0.10;;;0.10;;
15841;SDS011;8021;48.022;11.812;2023-05-29T10:22:54;0.10;;;0.10;;
15841;SDS011;8021;48.022;11.812;2023-05-29T10:25:23;0.10;;;0.10;;
15841;SDS011;8021;48.022;11.812;2023-05-29T10:27:51;0.10;;;0.10;;
15841;SDS011;8021;48.022;11.812;2023-05-29T10:30:22;0.10;;;0.10;;
15841;SDS011;8021;48.022;11.812;2023-05-29T10:32:59;0.10;;;0.10;;
15841;SDS011;8021;48.022;11.812;2023-05-29T10:35:31;0.20;;;0.20;;
15841;SDS011;8021;48.022;11.812;2023-05-29T10:38:01;0.10;;;0.10;;
15841;SDS011;8021;48.022;11.812;2023-05-29T10:40:30;0.10;;;0.10;;
15841;SDS011;8021;48.022;11.812;2023-05-29T10:42:57;0.10;;;0.10;;
15841;SDS011;8021;48.022;11.812;2023-05-29T10:48:40;0.10;;;0.10;;
15841;SDS011;8021;48.022;11.812;2023-05-29T10:51:08;0.17;;;0.13;;
15841;SDS011;8021;48.022;11.812;2023-05-29T10:53:36;0.10;;;0.10;;
15841;SDS011;8021;48.022;11.812;2023-05-29T10:56:14;0.10;;;0.10;;
15841;SDS011;8021;48.022;11.812;2023-05-29T10:58:43;0.10;;;0.10;;
15841;SDS011;8021;48.022;11.812;2023-05-29T11:01:10;0.17;;;0.17;;
15841;SDS011;8021;48.022;11.812;2023-05-29T11:03:38;0.10;;;0.10;;
15841;SDS011;8021;48.022;11.812;2023-05-29T11:06:07;0.00;;;0.00;;
15841;SDS011;8021;48.022;11.812;2023-05-29T11:08:44;0.10;;;0.10;;
15841;SDS011;8021;48.022;11.812;2023-05-29T11:11:12;0.10;;;0.10;;
15841;SDS011;8021;48.022;11.812;2023-05-29T11:13:40;0.10;;;0.10;;
15841;SDS011;8021;48.022;11.812;2023-05-29T11:16:11;0.10;;;0.10;;
15841;SDS011;8021;48.022;11.812;2023-05-29T11:18:42;0.10;;;0.10;;
15841;SDS011;8021;48.022;11.812;2023-05-29T11:23:58;0.10;;;0.10;;
15841;SDS011;8021;48.022;11.812;2023-05-29T11:26:33;0.10;;;0.10;;
15841;SDS011;8021;48.022;11.812;2023-05-29T11:29:02;0.10;;;0.10;;
15841;SDS011;8021;48.022;11.812;2023-05-29T11:31:31;0.10;;;0.10;;
15841;SDS011;8021;48.022;11.812;2023-05-29T11:34:01;0.10;;;0.10;;
15841;SDS011;8021;48.022;11.812;2023-05-29T11:36:30;0.10;;;0.10;;
15841;SDS011;8021;48.022;11.812;2023-05-29T11:39:00;0.10;;;0.10;;
15841;SDS011;8021;48.022;11.812;2023-05-29T11:41:27;0.10;;;0.10;;
15841;SDS011;8021;48.022;11.812;2023-05-29T11:43:55;0.10;;;0.10;;
15841;SDS011;8021;48.022;11.812;2023-05-29T11:46:23;0.10;;;0.10;;
15841;SDS011;8021;48.022;11.812;2023-05-29T11:48:52;0.10;;;0.10;;
15841;SDS011;8021;48.022;11.812;2023-05-29T11:51:20;0.10;;;0.10;;
15841;SDS011;8021;48.022;11.812;2023-05-29T11:53:47;0.10;;;0.10;;
15841;SDS011;8021;48.022;11.812;2023-05-29T11:56:16;0.10;;;0.10;;
15841;SDS011;8021;48.022;11.812;2023-05-29T11:58:44;0.10;;;0.10;;
15841;SDS011;8021;48.022;11.812;2023-05-29T12:01:12;0.10;;;0.10;;
15841;SDS011;8021;48.022;11.812;2023-05-29T12:03:43;0.10;;;0.10;;
15841;SDS011;8021;48.022;11.812;2023-05-29T12:06:11;0.10;;;0.10;;
15841;SDS011;8021;48.022;11.812;2023-05-29T12:08:38;0.10;;;0.10;;
15841;SDS011;8021;48.022;11.812;2023-05-29T12:11:06;0.10;;;0.10;;
15841;SDS011;8021;48.022;11.812;2023-05-29T12:13:35;0.10;;;0.10;;
15841;SDS011;8021;48.022;11.812;2023-05-29T12:16:04;0.10;;;0.10;;
15841;SDS011;8021;48.022;11.812;2023-05-29T12:18:31;0.10;;;0.10;;
15841;SDS011;8021;48.022;11.812;2023-05-29T12:21:00;0.10;;;0.10;;
15841;SDS011;8021;48.022;11.812;2023-05-29T12:23:28;0.10;;;0.10;;
15841;SDS011;8021;48.022;11.812;2023-05-29T12:25:55;0.10;;;0.10;;
15841;SDS011;8021;48.022;11.812;2023-05-29T12:28:23;0.10;;;0.10;;
15841;SDS011;8021;48.022;11.812;2023-05-29T12:30:57;0.10;;;0.10;;
15841;SDS011;8021;48.022;11.812;2023-05-29T12:33:26;0.10;;;0.10;;
15841;SDS011;8021;48.022;11.812;2023-05-29T12:36:00;0.10;;;0.10;;
15841;SDS011;8021;48.022;11.812;2023-05-29T12:38:28;0.10;;;0.10;;
15841;SDS011;8021;48.022;11.812;2023-05-29T12:40:56;0.10;;;0.10;;
15841;SDS011;8021;48.022;11.812;2023-05-29T12:43:24;0.10;;;0.10;;
15841;SDS011;8021;48.022;11.812;2023-05-29T12:45:56;0.10;;;0.10;;
15841;SDS011;8021;48.022;11.812;2023-05-29T12:48:26;0.10;;;0.10;;
15841;SDS011;8021;48.022;11.812;2023-05-29T12:50:53;0.10;;;0.10;;
15841;SDS011;8021;48.022;11.812;2023-05-29T12:53:21;0.10;;;0.10;;
15841;SDS011;8021;48.022;11.812;2023-05-29T12:55:48;0.10;;;0.10;;
15841;SDS011;8021;48.022;11.812;2023-05-29T12:58:16;0.10;;;0.10;;
15841;SDS011;8021;48.022;11.812;2023-05-29T13:00:43;0.10;;;0.10;;
15841;SDS011;8021;48.022;11.812;2023-05-29T13:03:13;0.10;;;0.10;;
15841;SDS011;8021;48.022;11.812;2023-05-29T13:05:41;0.10;;;0.10;;
15841;SDS011;8021;48.022;11.812;2023-05-29T13:08:09;0.10;;;0.10;;
15841;SDS011;8021;48.022;11.812;2023-05-29T13:10:36;0.10;;;0.10;;
15841;SDS011;8021;48.022;11.812;2023-05-29T13:13:04;0.10;;;0.10;;
15841;SDS011;8021;48.022;11.812;2023-05-29T13:15:31;0.10;;;0.10;;
15841;SDS011;8021;48.022;11.812;2023-05-29T13:18:00;0.10;;;0.10;;
15841;SDS011;8021;48.022;11.812;2023-05-29T13:20:29;0.10;;;0.10;;
15841;SDS011;8021;48.022;11.812;2023-05-29T13:22:58;0.10;;;0.10;;
15841;SDS011;8021;48.022;11.812;2023-05-29T13:25:26;0.10;;;0.10;;
15841;SDS011;8021;48.022;11.812;2023-05-29T13:27:54;0.10;;;0.10;;
15841;SDS011;8021;48.022;11.812;2023-05-29T13:30:22;0.10;;;0.10;;
15841;SDS011;8021;48.022;11.812;2023-05-29T13:32:49;0.10;;;0.10;;
15841;SDS011;8021;48.022;11.812;2023-05-29T13:35:17;0.10;;;0.10;;
15841;SDS011;8021;48.022;11.812;2023-05-29T13:37:46;0.10;;;0.10;;
15841;SDS011;8021;48.022;11.812;2023-05-29T13:40:13;0.10;;;0.10;;
15841;SDS011;8021;48.022;11.812;2023-05-29T13:42:41;0.20;;;0.20;;
15841;SDS011;8021;48.022;11.812;2023-05-29T13:45:09;0.10;;;0.10;;
15841;SDS011;8021;48.022;11.812;2023-05-29T13:47:38;0.10;;;0.10;;
15841;SDS011;8021;48.022;11.812;2023-05-29T13:50:05;0.10;;;0.10;;
15841;SDS011;8021;48.022;11.812;2023-05-29T13:52:34;0.10;;;0.10;;
15841;SDS011;8021;48.022;11.812;2023-05-29T13:55:03;0.10;;;0.10;;
15841;SDS011;8021;48.022;11.812;2023-05-29T13:57:34;0.10;;;0.10;;
15841;SDS011;8021;48.022;11.812;2023-05-29T14:00:02;0.10;;;0.10;;
15841;SDS011;8021;48.022;11.812;2023-05-29T14:02:30;0.10;;;0.10;;
15841;SDS011;8021;48.022;11.812;2023-05-29T14:04:58;0.10;;;0.10;;
15841;SDS011;8021;48.022;11.812;2023-05-29T14:07:25;0.10;;;0.10;;
15841;SDS011;8021;48.022;11.812;2023-05-29T14:09:53;0.10;;;0.10;;
15841;SDS011;8021;48.022;11.812;2023-05-29T14:12:22;0.10;;;0.10;;
15841;SDS011;8021;48.022;11.812;2023-05-29T14:14:49;0.10;;;0.10;;
15841;SDS011;8021;48.022;11.812;2023-05-29T14:17:17;0.10;;;0.10;;
15841;SDS011;8021;48.022;11.812;2023-05-29T14:19:44;0.10;;;0.10;;
15841;SDS011;8021;48.022;11.812;2023-05-29T14:22:13;0.10;;;0.10;;
15841;SDS011;8021;48.022;11.812;2023-05-29T14:24:41;0.10;;;0.10;;
15841;SDS011;8021;48.022;11.812;2023-05-29T14:27:09;0.10;;;0.10;;
15841;SDS011;8021;48.022;11.812;2023-05-29T14:29:37;0.10;;;0.10;;
15841;SDS011;8021;48.022;11.812;2023-05-29T14:32:05;0.10;;;0.10;;
15841;SDS011;8021;48.022;11.812;2023-05-29T14:34:33;0.10;;;0.10;;
15841;SDS011;8021;48.022;11.812;2023-05-29T14:37:00;0.10;;;0.10;;
15841;SDS011;8021;48.022;11.812;2023-05-29T14:39:28;0.10;;;0.10;;
15841;SDS011;8021;48.022;11.812;2023-05-29T14:41:55;0.10;;;0.10;;
15841;SDS011;8021;48.022;11.812;2023-05-29T14:44:23;0.10;;;0.10;;
15841;SDS011;8021;48.022;11.812;2023-05-29T14:46:52;0.10;;;0.10;;
15841;SDS011;8021;48.022;11.812;2023-05-29T14:49:20;0.10;;;0.10;;
15841;SDS011;8021;48.022;11.812;2023-05-29T14:51:47;0.10;;;0.10;;
15841;SDS011;8021;48.022;11.812;2023-05-29T14:54:15;0.10;;;0.10;;
15841;SDS011;8021;48.022;11.812;2023-05-29T14:56:42;0.10;;;0.10;;
15841;SDS011;8021;48.022;11.812;2023-05-29T14:59:10;0.10;;;0.10;;
15841;SDS011;8021;48.022;11.812;2023-05-29T15:01:37;0.10;;;0.10;;
15841;SDS011;8021;48.022;11.812;2023-05-29T15:04:06;0.10;;;0.10;;